首页
METAR-TAF:

METAR-TAF

机场 :

阿拉木图国际机场

阿拉木圖, 哈萨克斯坦

纬度: 43-14N, 经度: 076-56E, 海拔: 847米

当前天气观测

该预报发布于15分钟前的18:30 UTC
风速4节,风向东南,在东转东北之间变化
温度 -2°C
湿度 100%
气压 1019 hPa
能見度: 0550
冻雾

METAR: UAAA 091830Z 14002MPS 060V190 0550 R05L/1600U R05R/1600N FZFG VV002 M02/M02 Q1019 R88/3///60 NOSIG RMK QBB060

时间: 00:45 (18:45 UTC)

预报

该预报发布于1小时和45分钟前的17:00 UTC
预报有效从09日的 18点(UTC)到 10日的 18点(UTC)
风速4节,风向多变
能見度: 0800
层高于300英尺
冻雾
短暂存在
从 09日的 18点(UTC)到 10日的 04点(UTC)
风速6节,风向南转西南
能見度: 0200
层高于100英尺
从 10日的 0500点(UTC)
风速6节,风向北转东北
能見度: 3100
多云层高于1100英尺
多云层高于10000英尺
轻雾
短暂存在
从 10日的 05点(UTC)到 10日的 11点(UTC)
风速6节,风向西
能見度: 1600
多云层高于500英尺
短暂存在
从 10日的 11点(UTC)到 10日的 18点(UTC)
能見度: 0400
层高于200英尺
冻雾

TAF: UAAA 091700Z 0918/1018 VRB02MPS 0800 FZFG VV003 TX01/1008Z TNM04/1001Z TEMPO 0918/1004 20003MPS 0200 VV001 FM100500 02003MPS 3100 BR BKN011 BKN100 TEMPO 1005/1011 26003MPS 1600 BKN005 TEMPO 1011/1018 0400 FZFG VV002

超过4000个机场的气象观测和天气预报(METAR&TAF报告)。

可查询的气象台以黄色和红色小点在地图上表示。

将鼠标移到小点上方,可查看气象台名称。

然后点击查看天气观测和预报。

如需切换地图:点击带黑十字的绿色按钮放大地图;点击带横线的绿色按钮缩小地图;或者点击绿色箭头查看邻近地区的地图。


METAR-TAF: